sensor_id;sensor_type;location;lat;lon;timestamp;P1;durP1;ratioP1;P2;durP2;ratioP2
19024;SDS011;9645;51.448;6.260;2024-03-08T00:00:00;47.38;;;16.27;;
19024;SDS011;9645;51.448;6.260;2024-03-08T00:02:34;39.92;;;16.05;;
19024;SDS011;9645;51.448;6.260;2024-03-08T00:05:02;60.30;;;17.60;;
19024;SDS011;9645;51.448;6.260;2024-03-08T00:07:29;39.25;;;15.57;;
19024;SDS011;9645;51.448;6.260;2024-03-08T00:09:56;50.25;;;17.67;;
19024;SDS011;9645;51.448;6.260;2024-03-08T00:12:25;45.92;;;17.40;;
19024;SDS011;9645;51.448;6.260;2024-03-08T00:14:52;43.33;;;15.80;;
19024;SDS011;9645;51.448;6.260;2024-03-08T00:17:20;45.03;;;16.45;;
19024;SDS011;9645;51.448;6.260;2024-03-08T00:19:48;38.83;;;15.95;;
19024;SDS011;9645;51.448;6.260;2024-03-08T00:22:16;40.53;;;15.55;;
19024;SDS011;9645;51.448;6.260;2024-03-08T00:24:43;50.60;;;16.25;;
19024;SDS011;9645;51.448;6.260;2024-03-08T00:27:10;44.42;;;15.45;;
19024;SDS011;9645;51.448;6.260;2024-03-08T00:29:39;45.17;;;16.52;;
19024;SDS011;9645;51.448;6.260;2024-03-08T00:32:06;54.03;;;18.83;;
19024;SDS011;9645;51.448;6.260;2024-03-08T00:34:35;38.95;;;15.20;;
19024;SDS011;9645;51.448;6.260;2024-03-08T00:37:03;41.78;;;15.98;;
19024;SDS011;9645;51.448;6.260;2024-03-08T00:39:30;46.88;;;16.02;;
19024;SDS011;9645;51.448;6.260;2024-03-08T00:41:57;44.97;;;17.30;;
19024;SDS011;9645;51.448;6.260;2024-03-08T00:44:25;45.10;;;15.60;;
19024;SDS011;9645;51.448;6.260;2024-03-08T00:46:53;50.63;;;16.63;;
19024;SDS011;9645;51.448;6.260;2024-03-08T00:49:21;55.53;;;16.88;;
19024;SDS011;9645;51.448;6.260;2024-03-08T00:51:48;47.80;;;17.88;;
19024;SDS011;9645;51.448;6.260;2024-03-08T00:54:15;43.80;;;16.17;;
19024;SDS011;9645;51.448;6.260;2024-03-08T00:56:43;49.10;;;17.45;;
19024;SDS011;9645;51.448;6.260;2024-03-08T00:59:12;40.92;;;16.98;;
19024;SDS011;9645;51.448;6.260;2024-03-08T01:01:39;51.53;;;18.38;;
19024;SDS011;9645;51.448;6.260;2024-03-08T01:04:08;55.22;;;17.13;;
19024;SDS011;9645;51.448;6.260;2024-03-08T01:06:35;39.13;;;14.98;;
19024;SDS011;9645;51.448;6.260;2024-03-08T01:09:03;45.65;;;16.90;;
19024;SDS011;9645;51.448;6.260;2024-03-08T01:11:32;44.85;;;15.60;;
19024;SDS011;9645;51.448;6.260;2024-03-08T01:13:59;37.10;;;15.30;;
19024;SDS011;9645;51.448;6.260;2024-03-08T01:16:26;47.10;;;17.08;;
19024;SDS011;9645;51.448;6.260;2024-03-08T01:18:53;40.70;;;15.32;;
19024;SDS011;9645;51.448;6.260;2024-03-08T01:21:22;47.22;;;16.55;;
19024;SDS011;9645;51.448;6.260;2024-03-08T01:23:49;51.35;;;17.20;;
19024;SDS011;9645;51.448;6.260;2024-03-08T01:26:16;44.63;;;16.63;;
19024;SDS011;9645;51.448;6.260;2024-03-08T01:28:44;41.42;;;16.55;;
19024;SDS011;9645;51.448;6.260;2024-03-08T01:31:11;45.53;;;16.42;;
19024;SDS011;9645;51.448;6.260;2024-03-08T01:33:38;45.22;;;15.98;;
19024;SDS011;9645;51.448;6.260;2024-03-08T01:36:06;40.92;;;15.85;;
19024;SDS011;9645;51.448;6.260;2024-03-08T01:38:35;49.28;;;17.13;;
19024;SDS011;9645;51.448;6.260;2024-03-08T01:41:02;43.47;;;16.80;;
19024;SDS011;9645;51.448;6.260;2024-03-08T01:43:29;45.95;;;15.70;;
19024;SDS011;9645;51.448;6.260;2024-03-08T01:45:57;59.90;;;18.63;;
19024;SDS011;9645;51.448;6.260;2024-03-08T01:48:24;45.50;;;16.80;;
19024;SDS011;9645;51.448;6.260;2024-03-08T01:50:52;50.88;;;18.38;;
19024;SDS011;9645;51.448;6.260;2024-03-08T01:53:20;43.67;;;16.77;;
19024;SDS011;9645;51.448;6.260;2024-03-08T01:55:49;39.67;;;15.93;;
19024;SDS011;9645;51.448;6.260;2024-03-08T01:58:16;56.97;;;18.35;;
19024;SDS011;9645;51.448;6.260;2024-03-08T02:00:45;43.55;;;17.08;;
19024;SDS011;9645;51.448;6.260;2024-03-08T02:03:14;40.42;;;17.15;;
19024;SDS011;9645;51.448;6.260;2024-03-08T02:05:41;46.97;;;17.15;;
19024;SDS011;9645;51.448;6.260;2024-03-08T02:08:09;49.85;;;17.25;;
19024;SDS011;9645;51.448;6.260;2024-03-08T02:10:39;43.65;;;15.88;;
19024;SDS011;9645;51.448;6.260;2024-03-08T02:13:08;45.78;;;17.00;;
19024;SDS011;9645;51.448;6.260;2024-03-08T02:15:51;43.78;;;16.90;;
19024;SDS011;9645;51.448;6.260;2024-03-08T02:18:18;40.95;;;16.70;;
19024;SDS011;9645;51.448;6.260;2024-03-08T02:20:47;35.08;;;15.35;;
19024;SDS011;9645;51.448;6.260;2024-03-08T02:23:14;46.78;;;18.30;;
19024;SDS011;9645;51.448;6.260;2024-03-08T02:25:42;52.38;;;17.17;;
19024;SDS011;9645;51.448;6.260;2024-03-08T02:28:09;48.45;;;18.00;;
19024;SDS011;9645;51.448;6.260;2024-03-08T02:30:37;46.55;;;17.95;;
19024;SDS011;9645;51.448;6.260;2024-03-08T02:33:04;46.63;;;16.38;;
19024;SDS011;9645;51.448;6.260;2024-03-08T02:35:31;41.65;;;16.42;;
19024;SDS011;9645;51.448;6.260;2024-03-08T02:38:00;48.72;;;16.73;;
19024;SDS011;9645;51.448;6.260;2024-03-08T02:40:28;44.20;;;18.60;;
19024;SDS011;9645;51.448;6.260;2024-03-08T02:42:56;40.70;;;15.75;;
19024;SDS011;9645;51.448;6.260;2024-03-08T02:45:23;47.38;;;17.30;;
19024;SDS011;9645;51.448;6.260;2024-03-08T02:47:51;46.38;;;17.13;;
19024;SDS011;9645;51.448;6.260;2024-03-08T02:50:18;50.08;;;18.20;;
19024;SDS011;9645;51.448;6.260;2024-03-08T02:52:47;41.17;;;15.98;;
19024;SDS011;9645;51.448;6.260;2024-03-08T02:55:16;49.97;;;17.30;;
19024;SDS011;9645;51.448;6.260;2024-03-08T02:57:43;44.75;;;15.80;;
19024;SDS011;9645;51.448;6.260;2024-03-08T03:00:12;48.83;;;17.10;;
19024;SDS011;9645;51.448;6.260;2024-03-08T03:02:40;48.63;;;17.75;;
19024;SDS011;9645;51.448;6.260;2024-03-08T03:05:08;42.47;;;16.38;;
19024;SDS011;9645;51.448;6.260;2024-03-08T03:07:36;50.05;;;17.95;;
19024;SDS011;9645;51.448;6.260;2024-03-08T03:10:04;45.33;;;16.75;;
19024;SDS011;9645;51.448;6.260;2024-03-08T03:12:33;44.35;;;17.05;;
19024;SDS011;9645;51.448;6.260;2024-03-08T03:15:00;50.55;;;17.83;;
19024;SDS011;9645;51.448;6.260;2024-03-08T03:17:27;46.30;;;16.13;;
19024;SDS011;9645;51.448;6.260;2024-03-08T03:19:55;51.10;;;17.15;;
19024;SDS011;9645;51.448;6.260;2024-03-08T03:22:22;43.55;;;16.80;;
19024;SDS011;9645;51.448;6.260;2024-03-08T03:24:50;55.20;;;18.52;;
19024;SDS011;9645;51.448;6.260;2024-03-08T03:27:18;51.40;;;18.20;;
19024;SDS011;9645;51.448;6.260;2024-03-08T03:29:47;45.90;;;17.02;;
19024;SDS011;9645;51.448;6.260;2024-03-08T03:32:14;43.28;;;17.45;;
19024;SDS011;9645;51.448;6.260;2024-03-08T03:34:43;47.65;;;17.55;;
19024;SDS011;9645;51.448;6.260;2024-03-08T03:37:11;51.20;;;17.92;;
19024;SDS011;9645;51.448;6.260;2024-03-08T03:39:38;42.50;;;16.58;;
19024;SDS011;9645;51.448;6.260;2024-03-08T03:42:13;41.85;;;16.10;;
19024;SDS011;9645;51.448;6.260;2024-03-08T03:44:41;41.83;;;16.45;;
19024;SDS011;9645;51.448;6.260;2024-03-08T03:47:11;56.67;;;18.63;;
19024;SDS011;9645;51.448;6.260;2024-03-08T03:49:38;41.42;;;16.65;;
19024;SDS011;9645;51.448;6.260;2024-03-08T03:52:05;50.22;;;18.05;;
19024;SDS011;9645;51.448;6.260;2024-03-08T03:54:33;51.53;;;18.27;;
19024;SDS011;9645;51.448;6.260;2024-03-08T03:57:00;48.40;;;17.20;;
19024;SDS011;9645;51.448;6.260;2024-03-08T03:59:28;48.90;;;17.52;;
19024;SDS011;9645;51.448;6.260;2024-03-08T04:01:55;53.10;;;17.88;;
19024;SDS011;9645;51.448;6.260;2024-03-08T04:04:23;48.72;;;16.65;;
19024;SDS011;9645;51.448;6.260;2024-03-08T04:06:51;46.75;;;17.38;;
19024;SDS011;9645;51.448;6.260;2024-03-08T04:09:18;47.20;;;16.40;;
19024;SDS011;9645;51.448;6.260;2024-03-08T04:11:47;49.47;;;19.45;;
19024;SDS011;9645;51.448;6.260;2024-03-08T04:14:15;47.53;;;18.10;;
19024;SDS011;9645;51.448;6.260;2024-03-08T04:16:42;49.45;;;17.65;;
19024;SDS011;9645;51.448;6.260;2024-03-08T04:19:09;62.67;;;17.58;;
19024;SDS011;9645;51.448;6.260;2024-03-08T04:21:38;57.63;;;18.42;;
19024;SDS011;9645;51.448;6.260;2024-03-08T04:24:05;49.88;;;17.35;;
19024;SDS011;9645;51.448;6.260;2024-03-08T04:26:34;55.20;;;18.38;;
19024;SDS011;9645;51.448;6.260;2024-03-08T04:29:01;56.67;;;19.23;;
19024;SDS011;9645;51.448;6.260;2024-03-08T04:31:28;57.88;;;19.38;;
19024;SDS011;9645;51.448;6.260;2024-03-08T04:33:56;58.25;;;18.88;;
19024;SDS011;9645;51.448;6.260;2024-03-08T04:36:23;60.72;;;20.15;;
19024;SDS011;9645;51.448;6.260;2024-03-08T04:38:52;56.00;;;18.35;;
19024;SDS011;9645;51.448;6.260;2024-03-08T04:41:19;52.33;;;18.65;;
19024;SDS011;9645;51.448;6.260;2024-03-08T04:43:48;50.90;;;18.17;;
19024;SDS011;9645;51.448;6.260;2024-03-08T04:46:15;59.17;;;19.55;;
19024;SDS011;9645;51.448;6.260;2024-03-08T04:48:43;71.15;;;18.83;;
19024;SDS011;9645;51.448;6.260;2024-03-08T04:51:10;49.13;;;19.13;;
19024;SDS011;9645;51.448;6.260;2024-03-08T04:53:37;52.90;;;18.40;;
19024;SDS011;9645;51.448;6.260;2024-03-08T04:56:06;53.17;;;20.23;;
19024;SDS011;9645;51.448;6.260;2024-03-08T04:58:35;59.75;;;18.02;;
19024;SDS011;9645;51.448;6.260;2024-03-08T05:01:02;53.88;;;18.13;;
19024;SDS011;9645;51.448;6.260;2024-03-08T05:03:30;58.25;;;19.45;;
19024;SDS011;9645;51.448;6.260;2024-03-08T05:05:57;61.35;;;19.52;;
19024;SDS011;9645;51.448;6.260;2024-03-08T05:08:24;62.47;;;20.88;;
19024;SDS011;9645;51.448;6.260;2024-03-08T05:10:52;61.78;;;20.25;;
19024;SDS011;9645;51.448;6.260;2024-03-08T05:13:20;59.33;;;19.52;;
19024;SDS011;9645;51.448;6.260;2024-03-08T05:15:48;54.15;;;20.08;;
19024;SDS011;9645;51.448;6.260;2024-03-08T05:18:16;61.47;;;20.77;;
19024;SDS011;9645;51.448;6.260;2024-03-08T05:20:43;56.17;;;20.33;;
19024;SDS011;9645;51.448;6.260;2024-03-08T05:23:10;65.85;;;21.48;;
19024;SDS011;9645;51.448;6.260;2024-03-08T05:25:38;60.00;;;20.88;;
19024;SDS011;9645;51.448;6.260;2024-03-08T05:28:06;65.00;;;21.15;;
19024;SDS011;9645;51.448;6.260;2024-03-08T05:30:35;63.75;;;19.15;;
19024;SDS011;9645;51.448;6.260;2024-03-08T05:33:02;55.00;;;19.58;;
19024;SDS011;9645;51.448;6.260;2024-03-08T05:35:30;57.95;;;19.27;;
19024;SDS011;9645;51.448;6.260;2024-03-08T05:37:57;56.88;;;19.10;;
19024;SDS011;9645;51.448;6.260;2024-03-08T05:40:26;53.38;;;19.88;;
19024;SDS011;9645;51.448;6.260;2024-03-08T05:42:57;61.08;;;20.75;;
19024;SDS011;9645;51.448;6.260;2024-03-08T05:45:24;53.03;;;19.83;;
19024;SDS011;9645;51.448;6.260;2024-03-08T05:47:53;50.72;;;18.40;;
19024;SDS011;9645;51.448;6.260;2024-03-08T05:50:20;62.30;;;20.35;;
19024;SDS011;9645;51.448;6.260;2024-03-08T05:52:47;61.65;;;20.00;;
19024;SDS011;9645;51.448;6.260;2024-03-08T05:55:15;65.60;;;19.92;;
19024;SDS011;9645;51.448;6.260;2024-03-08T05:57:42;54.75;;;19.30;;
19024;SDS011;9645;51.448;6.260;2024-03-08T06:00:10;64.80;;;21.00;;
19024;SDS011;9645;51.448;6.260;2024-03-08T06:02:37;51.10;;;18.70;;
19024;SDS011;9645;51.448;6.260;2024-03-08T06:05:08;54.35;;;19.15;;
19024;SDS011;9645;51.448;6.260;2024-03-08T06:07:36;60.28;;;20.95;;
19024;SDS011;9645;51.448;6.260;2024-03-08T06:10:05;59.25;;;19.23;;
19024;SDS011;9645;51.448;6.260;2024-03-08T06:12:35;67.40;;;20.60;;
19024;SDS011;9645;51.448;6.260;2024-03-08T06:15:05;52.50;;;19.50;;
19024;SDS011;9645;51.448;6.260;2024-03-08T06:17:34;57.22;;;20.63;;
19024;SDS011;9645;51.448;6.260;2024-03-08T06:20:16;54.63;;;20.58;;
19024;SDS011;9645;51.448;6.260;2024-03-08T06:22:54;56.10;;;19.50;;
19024;SDS011;9645;51.448;6.260;2024-03-08T06:25:21;57.75;;;19.60;;
19024;SDS011;9645;51.448;6.260;2024-03-08T06:27:49;61.80;;;20.13;;
19024;SDS011;9645;51.448;6.260;2024-03-08T06:30:18;59.70;;;21.17;;
19024;SDS011;9645;51.448;6.260;2024-03-08T06:32:54;59.00;;;20.17;;
19024;SDS011;9645;51.448;6.260;2024-03-08T06:35:40;62.15;;;20.95;;
19024;SDS011;9645;51.448;6.260;2024-03-08T06:41:10;53.22;;;18.63;;
19024;SDS011;9645;51.448;6.260;2024-03-08T06:43:57;55.22;;;18.23;;
19024;SDS011;9645;51.448;6.260;2024-03-08T06:46:53;56.33;;;20.33;;
19024;SDS011;9645;51.448;6.260;2024-03-08T06:49:40;54.00;;;18.38;;
19024;SDS011;9645;51.448;6.260;2024-03-08T06:55:25;56.97;;;19.45;;
19024;SDS011;9645;51.448;6.260;2024-03-08T06:59:05;61.90;;;21.27;;
19024;SDS011;9645;51.448;6.260;2024-03-08T07:01:04;58.92;;;18.38;;
19024;SDS011;9645;51.448;6.260;2024-03-08T07:03:34;53.00;;;19.38;;
19024;SDS011;9645;51.448;6.260;2024-03-08T07:06:04;49.42;;;18.60;;
19024;SDS011;9645;51.448;6.260;2024-03-08T07:33:04;53.63;;;20.38;;
19024;SDS011;9645;51.448;6.260;2024-03-08T07:35:32;48.08;;;19.35;;
19024;SDS011;9645;51.448;6.260;2024-03-08T07:38:02;54.42;;;19.23;;
19024;SDS011;9645;51.448;6.260;2024-03-08T07:40:29;65.70;;;21.08;;
19024;SDS011;9645;51.448;6.260;2024-03-08T07:42:56;56.40;;;20.35;;
19024;SDS011;9645;51.448;6.260;2024-03-08T07:45:24;60.45;;;18.38;;
19024;SDS011;9645;51.448;6.260;2024-03-08T07:47:51;73.40;;;19.42;;
19024;SDS011;9645;51.448;6.260;2024-03-08T07:50:20;52.95;;;20.40;;
19024;SDS011;9645;51.448;6.260;2024-03-08T07:52:47;53.17;;;19.30;;
19024;SDS011;9645;51.448;6.260;2024-03-08T07:55:15;47.95;;;18.80;;
19024;SDS011;9645;51.448;6.260;2024-03-08T07:57:42;48.88;;;18.98;;
19024;SDS011;9645;51.448;6.260;2024-03-08T08:00:09;39.42;;;18.38;;
19024;SDS011;9645;51.448;6.260;2024-03-08T08:02:42;45.85;;;19.42;;
19024;SDS011;9645;51.448;6.260;2024-03-08T08:05:10;51.03;;;20.20;;
19024;SDS011;9645;51.448;6.260;2024-03-08T08:07:39;48.10;;;20.33;;
19024;SDS011;9645;51.448;6.260;2024-03-08T08:10:10;46.00;;;20.00;;
19024;SDS011;9645;51.448;6.260;2024-03-08T08:12:42;41.30;;;19.67;;
19024;SDS011;9645;51.448;6.260;2024-03-08T08:15:09;45.67;;;21.23;;
19024;SDS011;9645;51.448;6.260;2024-03-08T08:17:36;48.97;;;19.33;;
19024;SDS011;9645;51.448;6.260;2024-03-08T08:20:04;46.83;;;19.73;;
19024;SDS011;9645;51.448;6.260;2024-03-08T08:22:31;44.13;;;19.80;;
19024;SDS011;9645;51.448;6.260;2024-03-08T08:25:00;37.40;;;19.30;;
19024;SDS011;9645;51.448;6.260;2024-03-08T08:27:27;39.10;;;19.87;;
19024;SDS011;9645;51.448;6.260;2024-03-08T08:29:54;43.50;;;19.80;;
19024;SDS011;9645;51.448;6.260;2024-03-08T08:32:22;38.00;;;20.40;;
19024;SDS011;9645;51.448;6.260;2024-03-08T08:34:49;47.03;;;21.43;;
19024;SDS011;9645;51.448;6.260;2024-03-08T08:37:17;43.63;;;20.40;;
19024;SDS011;9645;51.448;6.260;2024-03-08T08:39:44;36.97;;;19.63;;
19024;SDS011;9645;51.448;6.260;2024-03-08T08:42:13;41.77;;;20.73;;
19024;SDS011;9645;51.448;6.260;2024-03-08T08:44:40;37.20;;;20.47;;
19024;SDS011;9645;51.448;6.260;2024-03-08T08:47:07;37.37;;;19.80;;
19024;SDS011;9645;51.448;6.260;2024-03-08T08:49:34;46.10;;;20.30;;
19024;SDS011;9645;51.448;6.260;2024-03-08T08:52:01;45.83;;;21.37;;
19024;SDS011;9645;51.448;6.260;2024-03-08T08:54:29;42.10;;;20.47;;
19024;SDS011;9645;51.448;6.260;2024-03-08T08:56:56;41.20;;;20.27;;
19024;SDS011;9645;51.448;6.260;2024-03-08T08:59:25;39.33;;;20.30;;
19024;SDS011;9645;51.448;6.260;2024-03-08T09:01:51;39.40;;;19.40;;
19024;SDS011;9645;51.448;6.260;2024-03-08T09:04:19;44.97;;;20.47;;
19024;SDS011;9645;51.448;6.260;2024-03-08T09:06:48;42.07;;;20.57;;
19024;SDS011;9645;51.448;6.260;2024-03-08T09:09:15;35.93;;;19.43;;
19024;SDS011;9645;51.448;6.260;2024-03-08T09:11:42;39.70;;;20.37;;
19024;SDS011;9645;51.448;6.260;2024-03-08T09:14:09;38.53;;;20.07;;
19024;SDS011;9645;51.448;6.260;2024-03-08T09:16:38;41.37;;;21.10;;
19024;SDS011;9645;51.448;6.260;2024-03-08T09:19:06;42.00;;;21.10;;
19024;SDS011;9645;51.448;6.260;2024-03-08T09:21:35;38.30;;;19.50;;
19024;SDS011;9645;51.448;6.260;2024-03-08T09:24:04;39.33;;;20.60;;
19024;SDS011;9645;51.448;6.260;2024-03-08T09:26:32;37.27;;;19.83;;
19024;SDS011;9645;51.448;6.260;2024-03-08T09:28:59;36.03;;;20.07;;
19024;SDS011;9645;51.448;6.260;2024-03-08T09:31:26;34.70;;;19.17;;
19024;SDS011;9645;51.448;6.260;2024-03-08T09:33:54;38.40;;;18.80;;
19024;SDS011;9645;51.448;6.260;2024-03-08T09:36:22;32.60;;;18.13;;
19024;SDS011;9645;51.448;6.260;2024-03-08T09:38:50;37.87;;;19.73;;
19024;SDS011;9645;51.448;6.260;2024-03-08T09:41:18;36.13;;;20.43;;
19024;SDS011;9645;51.448;6.260;2024-03-08T09:43:45;34.23;;;19.73;;
19024;SDS011;9645;51.448;6.260;2024-03-08T09:46:12;46.57;;;21.23;;
19024;SDS011;9645;51.448;6.260;2024-03-08T09:48:41;34.43;;;19.20;;
19024;SDS011;9645;51.448;6.260;2024-03-08T09:51:10;37.53;;;19.90;;
19024;SDS011;9645;51.448;6.260;2024-03-08T09:53:40;33.37;;;19.63;;
19024;SDS011;9645;51.448;6.260;2024-03-08T09:56:07;37.30;;;19.93;;
19024;SDS011;9645;51.448;6.260;2024-03-08T09:58:34;36.40;;;18.30;;
19024;SDS011;9645;51.448;6.260;2024-03-08T10:01:19;32.93;;;19.27;;
19024;SDS011;9645;51.448;6.260;2024-03-08T10:03:46;31.73;;;18.00;;
19024;SDS011;9645;51.448;6.260;2024-03-08T10:06:18;30.00;;;19.60;;
19024;SDS011;9645;51.448;6.260;2024-03-08T10:08:49;29.07;;;17.30;;
19024;SDS011;9645;51.448;6.260;2024-03-08T10:11:16;32.30;;;18.97;;
19024;SDS011;9645;51.448;6.260;2024-03-08T10:13:44;32.87;;;19.60;;
19024;SDS011;9645;51.448;6.260;2024-03-08T10:16:11;31.13;;;17.20;;
19024;SDS011;9645;51.448;6.260;2024-03-08T10:18:39;26.50;;;16.77;;
19024;SDS011;9645;51.448;6.260;2024-03-08T10:21:07;32.20;;;17.00;;
19024;SDS011;9645;51.448;6.260;2024-03-08T10:23:37;29.13;;;16.47;;
19024;SDS011;9645;51.448;6.260;2024-03-08T10:26:10;27.93;;;15.73;;
19024;SDS011;9645;51.448;6.260;2024-03-08T10:28:39;17.47;;;12.17;;
19024;SDS011;9645;51.448;6.260;2024-03-08T10:31:08;21.43;;;13.40;;
19024;SDS011;9645;51.448;6.260;2024-03-08T10:33:35;25.83;;;13.90;;
19024;SDS011;9645;51.448;6.260;2024-03-08T10:36:05;19.97;;;12.10;;
19024;SDS011;9645;51.448;6.260;2024-03-08T10:38:34;21.60;;;12.90;;
19024;SDS011;9645;51.448;6.260;2024-03-08T10:41:05;25.10;;;13.20;;
19024;SDS011;9645;51.448;6.260;2024-03-08T10:43:36;22.40;;;13.00;;
19024;SDS011;9645;51.448;6.260;2024-03-08T10:46:21;26.20;;;15.20;;
19024;SDS011;9645;51.448;6.260;2024-03-08T10:48:57;39.87;;;18.97;;
19024;SDS011;9645;51.448;6.260;2024-03-08T10:51:28;31.03;;;17.00;;
19024;SDS011;9645;51.448;6.260;2024-03-08T10:53:58;31.13;;;17.83;;
19024;SDS011;9645;51.448;6.260;2024-03-08T10:56:28;30.27;;;18.87;;
19024;SDS011;9645;51.448;6.260;2024-03-08T10:58:55;31.93;;;18.30;;
19024;SDS011;9645;51.448;6.260;2024-03-08T11:01:22;31.50;;;18.30;;
19024;SDS011;9645;51.448;6.260;2024-03-08T11:03:51;28.10;;;17.13;;
19024;SDS011;9645;51.448;6.260;2024-03-08T11:06:22;34.57;;;18.13;;
19024;SDS011;9645;51.448;6.260;2024-03-08T11:08:55;28.93;;;16.60;;
19024;SDS011;9645;51.448;6.260;2024-03-08T11:11:25;33.23;;;15.60;;
19024;SDS011;9645;51.448;6.260;2024-03-08T11:13:55;27.97;;;16.10;;
19024;SDS011;9645;51.448;6.260;2024-03-08T11:16:38;31.20;;;16.80;;
19024;SDS011;9645;51.448;6.260;2024-03-08T11:19:24;33.60;;;18.07;;
19024;SDS011;9645;51.448;6.260;2024-03-08T11:21:57;25.93;;;16.53;;
19024;SDS011;9645;51.448;6.260;2024-03-08T11:24:26;17.93;;;11.80;;
19024;SDS011;9645;51.448;6.260;2024-03-08T11:26:56;20.90;;;11.23;;
19024;SDS011;9645;51.448;6.260;2024-03-08T11:29:35;19.97;;;11.63;;
19024;SDS011;9645;51.448;6.260;2024-03-08T11:32:05;20.73;;;12.00;;
19024;SDS011;9645;51.448;6.260;2024-03-08T11:34:34;19.50;;;11.23;;
19024;SDS011;9645;51.448;6.260;2024-03-08T11:37:03;20.23;;;11.13;;
19024;SDS011;9645;51.448;6.260;2024-03-08T11:39:32;16.67;;;10.50;;
19024;SDS011;9645;51.448;6.260;2024-03-08T11:42:00;17.87;;;10.80;;
19024;SDS011;9645;51.448;6.260;2024-03-08T11:44:27;19.77;;;11.20;;
19024;SDS011;9645;51.448;6.260;2024-03-08T11:46:55;20.07;;;11.80;;
19024;SDS011;9645;51.448;6.260;2024-03-08T11:49:22;18.50;;;11.40;;
19024;SDS011;9645;51.448;6.260;2024-03-08T11:51:51;18.40;;;10.60;;
19024;SDS011;9645;51.448;6.260;2024-03-08T11:54:19;18.03;;;10.23;;
19024;SDS011;9645;51.448;6.260;2024-03-08T11:56:47;17.83;;;10.33;;
19024;SDS011;9645;51.448;6.260;2024-03-08T11:59:17;18.30;;;10.43;;
19024;SDS011;9645;51.448;6.260;2024-03-08T12:01:56;19.63;;;10.40;;
19024;SDS011;9645;51.448;6.260;2024-03-08T12:04:28;15.60;;;9.63;;
19024;SDS011;9645;51.448;6.260;2024-03-08T12:06:56;18.07;;;10.40;;
19024;SDS011;9645;51.448;6.260;2024-03-08T12:09:27;18.57;;;10.40;;
19024;SDS011;9645;51.448;6.260;2024-03-08T12:11:55;17.60;;;10.37;;
19024;SDS011;9645;51.448;6.260;2024-03-08T12:14:24;16.13;;;10.40;;
19024;SDS011;9645;51.448;6.260;2024-03-08T12:16:50;24.43;;;10.00;;
19024;SDS011;9645;51.448;6.260;2024-03-08T12:19:18;19.03;;;11.17;;
19024;SDS011;9645;51.448;6.260;2024-03-08T12:21:45;17.70;;;11.00;;
19024;SDS011;9645;51.448;6.260;2024-03-08T12:24:15;21.20;;;11.20;;
19024;SDS011;9645;51.448;6.260;2024-03-08T12:26:45;23.87;;;11.37;;
19024;SDS011;9645;51.448;6.260;2024-03-08T12:29:20;19.63;;;10.90;;
19024;SDS011;9645;51.448;6.260;2024-03-08T12:31:50;16.30;;;10.70;;
19024;SDS011;9645;51.448;6.260;2024-03-08T12:34:18;16.50;;;11.00;;
19024;SDS011;9645;51.448;6.260;2024-03-08T12:36:46;16.60;;;10.00;;
19024;SDS011;9645;51.448;6.260;2024-03-08T12:39:15;14.00;;;9.53;;
19024;SDS011;9645;51.448;6.260;2024-03-08T12:41:47;17.40;;;10.90;;
19024;SDS011;9645;51.448;6.260;2024-03-08T12:44:14;17.87;;;10.40;;
19024;SDS011;9645;51.448;6.260;2024-03-08T12:46:43;16.27;;;9.87;;
19024;SDS011;9645;51.448;6.260;2024-03-08T12:49:11;17.57;;;10.30;;
19024;SDS011;9645;51.448;6.260;2024-03-08T12:51:38;17.20;;;10.40;;
19024;SDS011;9645;51.448;6.260;2024-03-08T12:54:06;15.47;;;9.80;;
19024;SDS011;9645;51.448;6.260;2024-03-08T12:56:34;17.07;;;10.33;;
19024;SDS011;9645;51.448;6.260;2024-03-08T12:59:02;27.70;;;9.90;;
19024;SDS011;9645;51.448;6.260;2024-03-08T13:01:30;15.90;;;9.63;;
19024;SDS011;9645;51.448;6.260;2024-03-08T13:03:59;17.53;;;10.37;;
19024;SDS011;9645;51.448;6.260;2024-03-08T13:06:27;47.57;;;11.70;;
19024;SDS011;9645;51.448;6.260;2024-03-08T13:08:56;19.60;;;11.27;;
19024;SDS011;9645;51.448;6.260;2024-03-08T13:11:23;19.87;;;9.83;;
19024;SDS011;9645;51.448;6.260;2024-03-08T13:13:50;16.17;;;9.90;;
19024;SDS011;9645;51.448;6.260;2024-03-08T13:16:17;18.37;;;11.07;;
19024;SDS011;9645;51.448;6.260;2024-03-08T13:18:44;25.87;;;11.10;;
19024;SDS011;9645;51.448;6.260;2024-03-08T13:21:15;16.80;;;10.03;;
19024;SDS011;9645;51.448;6.260;2024-03-08T13:23:45;28.67;;;15.97;;
19024;SDS011;9645;51.448;6.260;2024-03-08T13:26:14;27.83;;;14.93;;
19024;SDS011;9645;51.448;6.260;2024-03-08T13:28:42;32.30;;;16.90;;
19024;SDS011;9645;51.448;6.260;2024-03-08T13:31:09;33.00;;;17.67;;
19024;SDS011;9645;51.448;6.260;2024-03-08T13:33:36;39.97;;;18.90;;
19024;SDS011;9645;51.448;6.260;2024-03-08T13:36:04;41.00;;;18.27;;
19024;SDS011;9645;51.448;6.260;2024-03-08T13:38:41;34.70;;;17.30;;
19024;SDS011;9645;51.448;6.260;2024-03-08T13:41:09;37.47;;;18.47;;
19024;SDS011;9645;51.448;6.260;2024-03-08T13:43:39;38.70;;;18.00;;
19024;SDS011;9645;51.448;6.260;2024-03-08T13:46:06;37.00;;;16.77;;
19024;SDS011;9645;51.448;6.260;2024-03-08T13:48:35;37.20;;;17.57;;
19024;SDS011;9645;51.448;6.260;2024-03-08T13:51:03;26.60;;;14.23;;
19024;SDS011;9645;51.448;6.260;2024-03-08T13:53:31;20.40;;;10.33;;
19024;SDS011;9645;51.448;6.260;2024-03-08T13:56:01;23.50;;;10.77;;
19024;SDS011;9645;51.448;6.260;2024-03-08T13:58:28;22.23;;;11.20;;
19024;SDS011;9645;51.448;6.260;2024-03-08T14:00:56;23.90;;;11.87;;
19024;SDS011;9645;51.448;6.260;2024-03-08T14:03:23;21.93;;;10.90;;
19024;SDS011;9645;51.448;6.260;2024-03-08T14:05:50;17.63;;;10.37;;
19024;SDS011;9645;51.448;6.260;2024-03-08T14:08:17;22.23;;;10.20;;
19024;SDS011;9645;51.448;6.260;2024-03-08T14:10:44;19.73;;;10.37;;
19024;SDS011;9645;51.448;6.260;2024-03-08T14:13:17;19.40;;;10.07;;
19024;SDS011;9645;51.448;6.260;2024-03-08T14:15:49;24.30;;;10.80;;
19024;SDS011;9645;51.448;6.260;2024-03-08T14:18:17;19.63;;;10.17;;
19024;SDS011;9645;51.448;6.260;2024-03-08T14:20:44;24.10;;;11.03;;
19024;SDS011;9645;51.448;6.260;2024-03-08T14:23:12;20.13;;;9.37;;
19024;SDS011;9645;51.448;6.260;2024-03-08T14:25:40;20.50;;;10.67;;
19024;SDS011;9645;51.448;6.260;2024-03-08T14:28:07;22.30;;;10.43;;
19024;SDS011;9645;51.448;6.260;2024-03-08T14:30:36;20.43;;;9.60;;
19024;SDS011;9645;51.448;6.260;2024-03-08T14:33:06;17.20;;;9.03;;
19024;SDS011;9645;51.448;6.260;2024-03-08T14:35:34;20.40;;;10.07;;
19024;SDS011;9645;51.448;6.260;2024-03-08T14:38:01;20.30;;;10.00;;
19024;SDS011;9645;51.448;6.260;2024-03-08T14:40:29;27.30;;;9.93;;
19024;SDS011;9645;51.448;6.260;2024-03-08T14:42:56;19.83;;;9.70;;
19024;SDS011;9645;51.448;6.260;2024-03-08T14:45:23;19.57;;;9.00;;
19024;SDS011;9645;51.448;6.260;2024-03-08T14:47:53;17.80;;;9.30;;
19024;SDS011;9645;51.448;6.260;2024-03-08T14:50:23;19.67;;;9.23;;
19024;SDS011;9645;51.448;6.260;2024-03-08T14:52:51;18.57;;;9.37;;
19024;SDS011;9645;51.448;6.260;2024-03-08T14:55:19;21.17;;;9.43;;
19024;SDS011;9645;51.448;6.260;2024-03-08T14:57:47;18.50;;;10.50;;
19024;SDS011;9645;51.448;6.260;2024-03-08T15:00:16;17.23;;;8.67;;
19024;SDS011;9645;51.448;6.260;2024-03-08T15:02:53;19.87;;;8.73;;
19024;SDS011;9645;51.448;6.260;2024-03-08T15:05:21;15.87;;;8.83;;
19024;SDS011;9645;51.448;6.260;2024-03-08T15:07:51;22.67;;;9.60;;
19024;SDS011;9645;51.448;6.260;2024-03-08T15:10:19;18.80;;;8.23;;
19024;SDS011;9645;51.448;6.260;2024-03-08T15:12:49;16.30;;;8.90;;
19024;SDS011;9645;51.448;6.260;2024-03-08T15:15:20;23.00;;;8.33;;